createdAt,value
2023-05-03T00:02:17.429Z,3.33
2023-05-03T00:04:46.542Z,2.75
2023-05-03T00:07:14.522Z,3.00
2023-05-03T00:09:42.328Z,2.90
2023-05-03T00:12:10.038Z,3.33
2023-05-03T00:14:37.748Z,3.20
2023-05-03T00:17:05.771Z,3.20
2023-05-03T00:19:34.135Z,3.17
2023-05-03T00:22:01.922Z,3.42
2023-05-03T00:24:29.681Z,3.47
2023-05-03T00:26:57.462Z,3.28
2023-05-03T00:29:25.900Z,3.25
2023-05-03T00:31:53.646Z,3.28
2023-05-03T00:34:21.357Z,3.28
2023-05-03T00:36:49.132Z,3.30
2023-05-03T00:39:16.829Z,3.20
2023-05-03T00:41:44.585Z,3.28
2023-05-03T00:44:12.329Z,3.22
2023-05-03T00:46:40.548Z,3.60
2023-05-03T00:49:08.313Z,3.45
2023-05-03T00:51:36.600Z,3.50
2023-05-03T00:54:04.818Z,3.70
2023-05-03T00:56:44.305Z,3.20
2023-05-03T00:59:16.088Z,3.45
2023-05-03T01:01:44.508Z,3.60
2023-05-03T01:04:12.360Z,3.78
2023-05-03T01:06:48.999Z,3.20
2023-05-03T01:09:43.134Z,3.65
2023-05-03T01:12:49.126Z,3.55
2023-05-03T01:15:53.127Z,3.60
2023-05-03T01:18:26.923Z,3.22
2023-05-03T01:20:57.512Z,4.00
2023-05-03T01:23:51.954Z,4.00
2023-05-03T01:26:27.877Z,3.60
2023-05-03T01:28:56.203Z,3.47
2023-05-03T01:31:46.173Z,4.07
2023-05-03T01:34:16.935Z,4.13
2023-05-03T01:36:46.040Z,4.30
2023-05-03T01:39:24.708Z,3.97
2023-05-03T01:41:53.405Z,3.60
2023-05-03T01:44:22.858Z,3.90
2023-05-03T01:46:50.798Z,3.95
2023-05-03T01:49:18.540Z,3.60
2023-05-03T01:51:46.278Z,3.88
2023-05-03T01:54:14.083Z,4.00
2023-05-03T01:56:41.919Z,3.90
2023-05-03T01:59:09.696Z,3.67
2023-05-03T02:01:37.617Z,3.80
2023-05-03T02:04:05.536Z,3.35
2023-05-03T02:06:33.620Z,3.47
2023-05-03T02:09:01.501Z,3.85
2023-05-03T02:11:29.275Z,3.78
2023-05-03T02:13:57.019Z,3.88
2023-05-03T02:16:24.829Z,4.25
2023-05-03T02:18:53.841Z,3.80
2023-05-03T02:21:21.588Z,4.13
2023-05-03T02:23:49.320Z,3.95
2023-05-03T02:26:17.255Z,4.78
2023-05-03T02:28:44.999Z,7.03
2023-05-03T02:31:13.745Z,7.85
2023-05-03T02:33:43.759Z,10.07
2023-05-03T02:36:12.034Z,10.07
2023-05-03T02:38:39.773Z,10.75
2023-05-03T02:41:07.966Z,10.13
2023-05-03T02:43:35.724Z,9.20
2023-05-03T02:46:03.620Z,9.05
2023-05-03T02:48:31.623Z,9.02
2023-05-03T02:50:59.394Z,12.20
2023-05-03T02:53:27.146Z,10.15
2023-05-03T02:58:26.799Z,10.18
2023-05-03T03:00:54.944Z,12.35
2023-05-03T03:03:22.904Z,15.05
2023-05-03T03:05:50.989Z,10.80
2023-05-03T03:08:19.960Z,9.65
2023-05-03T03:10:48.513Z,14.52
2023-05-03T03:13:16.534Z,13.43
2023-05-03T03:15:44.290Z,14.15
2023-05-03T03:18:12.314Z,12.60
2023-05-03T03:20:40.080Z,21.90
2023-05-03T03:23:07.986Z,15.57
2023-05-03T03:25:35.816Z,10.07
2023-05-03T03:28:03.990Z,7.05
2023-05-03T03:30:32.810Z,6.60
2023-05-03T03:33:14.094Z,7.05
2023-05-03T03:35:43.241Z,7.45
2023-05-03T03:38:12.911Z,9.23
2023-05-03T03:40:48.951Z,5.60
2023-05-03T03:43:17.332Z,5.00
2023-05-03T03:45:45.172Z,4.88
2023-05-03T03:48:15.382Z,5.30
2023-05-03T03:50:43.272Z,4.70
2023-05-03T03:53:13.029Z,4.60
2023-05-03T03:55:41.564Z,6.38
2023-05-03T03:58:09.717Z,5.88
2023-05-03T04:00:38.259Z,5.60
2023-05-03T04:03:12.629Z,5.50
2023-05-03T04:05:40.927Z,5.75
2023-05-03T04:08:09.327Z,6.13
2023-05-03T04:10:37.898Z,5.00
2023-05-03T04:13:06.351Z,5.80
2023-05-03T04:15:34.422Z,5.60
2023-05-03T04:18:04.194Z,6.85
2023-05-03T04:20:33.055Z,6.38
2023-05-03T04:23:02.345Z,5.75
2023-05-03T04:25:32.127Z,5.55
2023-05-03T04:28:05.621Z,5.15
2023-05-03T04:30:35.812Z,4.90
2023-05-03T04:33:04.606Z,6.60
2023-05-03T04:35:36.130Z,6.20
2023-05-03T04:38:09.804Z,6.00
2023-05-03T04:40:37.832Z,6.72
2023-05-03T04:43:11.151Z,7.20
2023-05-03T04:45:42.615Z,8.30
2023-05-03T04:48:15.373Z,29.10
2023-05-03T04:50:43.139Z,27.95
2023-05-03T04:53:12.982Z,23.33
2023-05-03T04:55:43.771Z,11.80
2023-05-03T04:58:12.033Z,14.40
2023-05-03T05:00:42.985Z,8.45
2023-05-03T05:03:16.898Z,10.75
2023-05-03T05:05:45.297Z,15.95
2023-05-03T05:08:13.137Z,18.00
2023-05-03T05:10:48.582Z,14.93
2023-05-03T05:13:20.622Z,8.70
2023-05-03T05:15:48.373Z,11.60
2023-05-03T05:18:16.271Z,9.50
2023-05-03T05:20:45.463Z,8.63
2023-05-03T05:23:13.402Z,7.70
2023-05-03T05:25:43.897Z,7.45
2023-05-03T05:28:11.616Z,6.72
2023-05-03T05:30:41.482Z,5.57
2023-05-03T05:33:09.679Z,5.40
2023-05-03T05:35:37.948Z,6.22
2023-05-03T05:38:06.141Z,5.88
2023-05-03T05:40:35.003Z,5.65
2023-05-03T05:43:03.044Z,5.40
2023-05-03T05:45:34.565Z,5.47
2023-05-03T05:48:04.628Z,7.07
2023-05-03T05:50:32.635Z,7.57
2023-05-03T05:53:04.801Z,6.57
2023-05-03T05:55:36.862Z,6.85
2023-05-03T05:58:04.709Z,5.75
2023-05-03T06:00:39.642Z,6.00
2023-05-03T06:03:07.591Z,5.85
2023-05-03T06:05:35.953Z,9.10
2023-05-03T06:08:04.135Z,6.28
2023-05-03T06:10:31.866Z,7.28
2023-05-03T06:12:59.689Z,6.72
2023-05-03T06:15:29.184Z,7.43
2023-05-03T06:17:57.341Z,5.88
2023-05-03T06:20:25.252Z,5.78
2023-05-03T06:22:56.858Z,5.55
2023-05-03T06:25:24.686Z,6.47
2023-05-03T06:27:52.386Z,5.70
2023-05-03T06:30:27.349Z,5.05
2023-05-03T06:32:58.937Z,5.03
2023-05-03T06:35:26.880Z,5.07
2023-05-03T06:37:55.086Z,5.38
2023-05-03T06:40:25.504Z,5.20
2023-05-03T06:42:53.171Z,4.82
2023-05-03T06:45:32.369Z,4.80
2023-05-03T06:48:00.292Z,5.13
2023-05-03T06:50:28.118Z,4.90
2023-05-03T06:52:55.957Z,4.78
2023-05-03T06:55:23.714Z,5.15
2023-05-03T06:57:53.016Z,4.80
2023-05-03T07:00:26.069Z,5.20
2023-05-03T07:02:53.889Z,4.82
2023-05-03T07:05:21.693Z,5.00
2023-05-03T07:07:49.503Z,4.50
2023-05-03T07:10:17.197Z,4.97
2023-05-03T07:12:45.035Z,5.10
2023-05-03T07:15:12.796Z,4.88
2023-05-03T07:17:40.684Z,4.95
2023-05-03T07:20:08.937Z,5.22
2023-05-03T07:22:36.731Z,5.20
2023-05-03T07:25:04.862Z,5.35
2023-05-03T07:27:32.775Z,5.25
2023-05-03T07:30:01.042Z,5.75
2023-05-03T07:32:29.291Z,5.10
2023-05-03T07:34:57.036Z,5.10
2023-05-03T07:37:25.845Z,5.20
2023-05-03T07:39:53.800Z,4.90
2023-05-03T07:42:21.761Z,5.55
2023-05-03T07:44:49.986Z,5.05
2023-05-03T07:47:17.983Z,5.28
2023-05-03T07:49:47.802Z,5.60
2023-05-03T07:52:15.732Z,6.53
2023-05-03T07:54:45.665Z,5.35
2023-05-03T07:57:16.134Z,5.10
2023-05-03T07:59:43.917Z,4.85
2023-05-03T08:02:11.734Z,5.88
2023-05-03T08:04:40.078Z,5.70
2023-05-03T08:07:08.044Z,4.95
2023-05-03T08:09:36.459Z,4.90
2023-05-03T08:12:04.409Z,4.95
2023-05-03T08:14:33.738Z,5.25
2023-05-03T08:17:01.472Z,5.07
2023-05-03T08:19:29.174Z,5.53
2023-05-03T08:21:56.851Z,5.43
2023-05-03T08:24:24.730Z,5.72
2023-05-03T08:26:52.800Z,5.50
2023-05-03T08:29:21.051Z,5.35
2023-05-03T08:31:48.977Z,5.10
2023-05-03T08:34:17.026Z,5.25
2023-05-03T08:36:44.821Z,5.53
2023-05-03T08:39:15.213Z,5.47
2023-05-03T08:41:44.655Z,5.60
2023-05-03T08:44:20.012Z,5.07
2023-05-03T08:46:47.803Z,5.55
2023-05-03T08:49:17.680Z,5.28
2023-05-03T08:51:47.318Z,4.70
2023-05-03T08:54:18.188Z,4.95
2023-05-03T08:56:47.353Z,4.43
2023-05-03T08:59:17.180Z,4.50
2023-05-03T09:01:45.319Z,4.88
2023-05-03T09:04:13.185Z,4.70
2023-05-03T09:06:41.552Z,4.93
2023-05-03T09:09:09.753Z,5.00
2023-05-03T09:11:40.434Z,5.07
2023-05-03T09:14:09.994Z,4.57
2023-05-03T09:16:39.314Z,5.57
2023-05-03T09:19:11.570Z,4.97
2023-05-03T09:21:47.015Z,4.97
2023-05-03T09:24:19.204Z,4.93
2023-05-03T09:26:49.949Z,4.57
2023-05-03T09:29:36.691Z,4.80
2023-05-03T09:32:06.471Z,4.63
2023-05-03T09:34:38.564Z,5.03
2023-05-03T09:37:06.672Z,5.00
2023-05-03T09:39:36.816Z,5.47
2023-05-03T09:42:18.730Z,5.35
2023-05-03T09:44:51.268Z,5.50
2023-05-03T09:47:19.142Z,4.38
2023-05-03T09:49:47.489Z,4.32
2023-05-03T09:52:15.415Z,4.88
2023-05-03T09:54:43.797Z,4.90
2023-05-03T09:57:12.730Z,4.18
2023-05-03T09:59:40.569Z,4.57
2023-05-03T10:02:08.772Z,4.32
2023-05-03T10:04:51.960Z,4.55
2023-05-03T10:07:21.714Z,4.72
2023-05-03T10:09:49.659Z,5.40
2023-05-03T10:12:19.132Z,5.63
2023-05-03T10:14:49.882Z,6.38
2023-05-03T10:17:46.238Z,5.40
2023-05-03T10:20:33.456Z,5.00
2023-05-03T10:23:12.242Z,4.60
2023-05-03T10:26:13.291Z,4.18
2023-05-03T10:28:41.242Z,4.13
2023-05-03T10:31:48.272Z,4.25
2023-05-03T10:34:24.940Z,4.50
2023-05-03T10:36:56.753Z,4.03
2023-05-03T10:39:27.541Z,3.70
2023-05-03T10:42:08.188Z,3.05
2023-05-03T10:44:41.143Z,4.17
2023-05-03T10:47:17.255Z,4.00
2023-05-03T10:49:45.911Z,3.85
2023-05-03T10:52:48.181Z,3.63
2023-05-03T10:55:22.216Z,3.45
2023-05-03T10:57:53.807Z,3.67
2023-05-03T11:00:34.316Z,3.90
2023-05-03T11:03:28.993Z,4.53
2023-05-03T11:05:57.492Z,3.67
2023-05-03T11:08:25.981Z,3.38
2023-05-03T11:11:00.921Z,3.60
2023-05-03T11:13:29.226Z,3.55
2023-05-03T11:15:57.111Z,3.55
2023-05-03T11:18:30.283Z,3.58
2023-05-03T11:20:58.261Z,3.78
2023-05-03T11:23:31.463Z,3.20
2023-05-03T11:25:59.196Z,3.42
2023-05-03T11:28:27.054Z,3.22
2023-05-03T11:30:55.056Z,3.30
2023-05-03T11:33:22.818Z,3.22
2023-05-03T11:35:54.820Z,3.78
2023-05-03T11:38:22.911Z,3.20
2023-05-03T11:40:50.602Z,3.13
2023-05-03T11:43:18.392Z,3.60
2023-05-03T11:45:48.156Z,2.78
2023-05-03T11:48:16.706Z,2.85
2023-05-03T11:50:56.372Z,3.20
2023-05-03T11:53:26.319Z,3.28
2023-05-03T11:55:55.885Z,2.80
2023-05-03T11:58:27.462Z,2.97
2023-05-03T12:00:57.114Z,2.97
2023-05-03T12:03:36.161Z,2.83
2023-05-03T12:06:06.571Z,2.90
2023-05-03T12:08:37.639Z,3.00
2023-05-03T12:11:07.513Z,3.08
2023-05-03T12:13:40.472Z,3.08
2023-05-03T12:18:58.659Z,2.70
2023-05-03T12:24:24.570Z,3.20
2023-05-03T12:26:52.888Z,3.05
2023-05-03T12:29:22.832Z,2.67
2023-05-03T12:31:52.712Z,3.22
2023-05-03T12:34:33.697Z,3.50
2023-05-03T12:37:05.756Z,2.85
2023-05-03T12:39:36.746Z,2.45
2023-05-03T12:42:08.927Z,2.15
2023-05-03T12:44:42.375Z,2.80
2023-05-03T12:47:11.392Z,2.28
2023-05-03T12:49:40.135Z,2.60
2023-05-03T12:54:41.886Z,2.75
2023-05-03T12:59:51.997Z,2.15
2023-05-03T13:04:58.930Z,2.85
2023-05-03T13:07:30.501Z,2.53
2023-05-03T13:12:33.409Z,2.08
2023-05-03T13:15:04.050Z,2.50
2023-05-03T13:17:32.637Z,2.53
2023-05-03T13:20:01.284Z,2.40
2023-05-03T13:22:29.103Z,2.50
2023-05-03T13:24:56.887Z,2.70
2023-05-03T13:27:25.145Z,2.67
2023-05-03T13:29:52.882Z,2.70
2023-05-03T13:32:20.719Z,2.20
2023-05-03T13:34:48.529Z,2.60
2023-05-03T13:37:18.796Z,2.17
2023-05-03T13:39:46.861Z,2.38
2023-05-03T13:42:14.772Z,2.13
2023-05-03T13:44:44.506Z,2.25
2023-05-03T13:47:12.236Z,2.33
2023-05-03T13:49:40.035Z,2.08
2023-05-03T13:52:07.770Z,2.10
2023-05-03T13:54:36.961Z,2.10
2023-05-03T13:57:04.662Z,1.63
2023-05-03T13:59:32.406Z,1.95
2023-05-03T14:02:00.794Z,1.73
2023-05-03T14:04:28.889Z,2.28
2023-05-03T14:06:56.812Z,2.08
2023-05-03T14:09:24.653Z,1.77
2023-05-03T14:11:53.061Z,1.67
2023-05-03T14:14:22.023Z,1.95
2023-05-03T14:16:49.792Z,1.70
2023-05-03T14:19:18.133Z,1.33
2023-05-03T14:21:49.462Z,1.60
2023-05-03T14:26:45.221Z,1.60
2023-05-03T14:29:12.982Z,1.60
2023-05-03T14:31:40.891Z,1.50
2023-05-03T14:34:08.948Z,1.40
2023-05-03T14:36:38.638Z,1.85
2023-05-03T14:39:06.841Z,1.60
2023-05-03T14:41:34.955Z,1.60
2023-05-03T14:44:02.790Z,1.58
2023-05-03T14:46:41.923Z,1.93
2023-05-03T14:49:09.681Z,1.70
2023-05-03T14:51:37.489Z,1.33
2023-05-03T14:54:05.536Z,1.60
2023-05-03T14:56:33.371Z,1.58
2023-05-03T14:59:01.715Z,1.50
2023-05-03T15:01:29.573Z,1.60
2023-05-03T15:03:57.231Z,1.35
2023-05-03T15:06:31.999Z,1.67
2023-05-03T15:08:59.815Z,1.42
2023-05-03T15:11:27.718Z,1.70
2023-05-03T15:13:55.436Z,1.20
2023-05-03T15:16:23.872Z,1.20
2023-05-03T15:18:51.811Z,1.40
2023-05-03T15:21:20.202Z,1.40
2023-05-03T15:23:51.750Z,1.73
2023-05-03T15:26:19.783Z,1.45
2023-05-03T15:28:47.514Z,1.58
2023-05-03T15:31:16.133Z,1.73
2023-05-03T15:33:44.884Z,1.50
2023-05-03T15:36:13.915Z,1.48
2023-05-03T15:38:41.689Z,1.25
2023-05-03T15:41:09.637Z,1.38
2023-05-03T15:43:37.749Z,1.40
2023-05-03T15:46:05.783Z,1.00
2023-05-03T15:48:33.528Z,1.40
2023-05-03T15:51:01.480Z,1.50
2023-05-03T15:53:29.247Z,1.27
2023-05-03T15:55:58.129Z,1.50
2023-05-03T15:58:30.289Z,1.45
2023-05-03T16:00:59.310Z,1.40
2023-05-03T16:03:28.643Z,1.48
2023-05-03T16:05:57.157Z,1.40
2023-05-03T16:08:25.230Z,1.13
2023-05-03T16:10:53.066Z,1.30
2023-05-03T16:13:20.898Z,1.30
2023-05-03T16:15:52.233Z,1.27
2023-05-03T16:20:49.370Z,1.00
2023-05-03T16:23:17.584Z,1.60
2023-05-03T16:25:45.408Z,1.45
2023-05-03T16:28:13.456Z,1.20
2023-05-03T16:30:41.177Z,1.65
2023-05-03T16:33:09.156Z,1.65
2023-05-03T16:35:36.902Z,1.20
2023-05-03T16:38:04.584Z,1.30
2023-05-03T16:40:32.288Z,1.20
2023-05-03T16:43:00.049Z,1.20
2023-05-03T16:45:28.392Z,1.50
2023-05-03T16:47:56.931Z,1.60
2023-05-03T16:50:24.714Z,1.50
2023-05-03T16:52:52.850Z,1.40
2023-05-03T16:55:23.684Z,1.40
2023-05-03T16:57:51.535Z,1.55
2023-05-03T17:00:20.887Z,1.30
2023-05-03T17:02:49.092Z,1.30
2023-05-03T17:05:17.574Z,1.33
2023-05-03T17:07:46.023Z,1.45
2023-05-03T17:10:13.889Z,1.38
2023-05-03T17:12:41.900Z,1.48
2023-05-03T17:15:10.455Z,1.30
2023-05-03T17:17:38.315Z,1.33
2023-05-03T17:20:07.764Z,1.40
2023-05-03T17:22:36.092Z,1.40
2023-05-03T17:25:04.040Z,1.70
2023-05-03T17:27:32.159Z,1.50
2023-05-03T17:30:00.092Z,1.30
2023-05-03T17:32:27.830Z,1.40
2023-05-03T17:35:08.833Z,1.13
2023-05-03T17:37:37.514Z,1.38
2023-05-03T17:40:07.707Z,1.30
2023-05-03T17:42:35.836Z,1.30
2023-05-03T17:45:04.886Z,1.25
2023-05-03T17:47:32.685Z,1.40
2023-05-03T17:50:00.502Z,1.30
2023-05-03T17:52:28.363Z,0.90
2023-05-03T17:54:57.139Z,1.38
2023-05-03T17:57:25.018Z,1.30
2023-05-03T17:59:52.786Z,1.20
2023-05-03T18:02:21.547Z,1.30
2023-05-03T18:04:49.276Z,1.40
2023-05-03T18:07:17.105Z,1.25
2023-05-03T18:09:44.837Z,1.17
2023-05-03T18:12:14.241Z,1.38
2023-05-03T18:14:42.127Z,1.17
2023-05-03T18:17:09.954Z,1.40
2023-05-03T18:19:37.717Z,1.35
2023-05-03T18:22:06.296Z,1.55
2023-05-03T18:24:34.176Z,1.30
2023-05-03T18:27:02.506Z,1.40
2023-05-03T18:29:30.252Z,1.40
2023-05-03T18:31:58.358Z,1.30
2023-05-03T18:34:29.647Z,1.20
2023-05-03T18:36:57.561Z,1.50
2023-05-03T18:39:25.353Z,1.50
2023-05-03T18:41:53.186Z,1.45
2023-05-03T18:44:23.977Z,1.35
2023-05-03T18:46:52.717Z,1.48
2023-05-03T18:49:21.914Z,1.35
2023-05-03T18:51:49.814Z,1.50
2023-05-03T18:54:17.883Z,1.35
2023-05-03T18:56:45.721Z,1.35
2023-05-03T18:59:13.483Z,1.50
2023-05-03T19:01:41.343Z,1.20
2023-05-03T19:04:09.135Z,1.42
2023-05-03T19:06:36.967Z,1.52
2023-05-03T19:09:04.726Z,1.30
2023-05-03T19:11:32.588Z,1.50
2023-05-03T19:14:01.050Z,1.50
2023-05-03T19:16:28.839Z,1.70
2023-05-03T19:18:56.723Z,1.30
2023-05-03T19:21:24.825Z,1.23
2023-05-03T19:23:52.577Z,1.17
2023-05-03T19:26:20.485Z,1.50
2023-05-03T19:28:48.304Z,1.30
2023-05-03T19:31:17.742Z,1.00
2023-05-03T19:33:45.542Z,1.08
2023-05-03T19:36:14.833Z,1.45
2023-05-03T19:38:42.777Z,1.35
2023-05-03T19:41:12.712Z,1.50
2023-05-03T19:43:42.091Z,1.30
2023-05-03T19:46:10.580Z,1.30
2023-05-03T19:48:38.421Z,1.30
2023-05-03T19:51:06.282Z,1.30
2023-05-03T19:53:34.035Z,1.40
2023-05-03T19:56:07.123Z,1.23
2023-05-03T19:58:35.413Z,1.40
2023-05-03T20:01:03.230Z,1.33
2023-05-03T20:03:31.303Z,1.52
2023-05-03T20:05:59.358Z,1.45
2023-05-03T20:08:27.366Z,1.55
2023-05-03T20:10:55.644Z,1.58
2023-05-03T20:13:25.823Z,1.40
2023-05-03T20:15:53.900Z,1.50
2023-05-03T20:18:22.043Z,1.60
2023-05-03T20:20:49.761Z,1.67
2023-05-03T20:23:17.767Z,1.58
2023-05-03T20:25:45.508Z,1.58
2023-05-03T20:28:13.339Z,1.80
2023-05-03T20:30:41.532Z,1.75
2023-05-03T20:33:10.131Z,1.48
2023-05-03T20:35:38.257Z,1.75
2023-05-03T20:38:06.074Z,1.60
2023-05-03T20:40:34.496Z,1.75
2023-05-03T20:43:02.330Z,1.85
2023-05-03T20:45:30.239Z,1.77
2023-05-03T20:47:58.078Z,1.70
2023-05-03T20:50:25.858Z,1.70
2023-05-03T20:52:55.345Z,1.73
2023-05-03T20:55:23.330Z,1.70
2023-05-03T20:57:51.066Z,1.73
2023-05-03T21:00:21.013Z,1.80
2023-05-03T21:02:54.268Z,1.88
2023-05-03T21:05:22.266Z,1.90
2023-05-03T21:07:50.045Z,1.80
2023-05-03T21:10:17.838Z,1.80
2023-05-03T21:12:45.929Z,1.70
2023-05-03T21:15:13.752Z,1.60
2023-05-03T21:17:41.506Z,1.60
2023-05-03T21:20:10.761Z,1.70
2023-05-03T21:22:38.494Z,1.70
2023-05-03T21:25:07.219Z,1.90
2023-05-03T21:27:34.980Z,2.00
2023-05-03T21:30:03.187Z,1.70
2023-05-03T21:32:31.211Z,1.60
2023-05-03T21:34:59.067Z,1.70
2023-05-03T21:37:26.775Z,1.70
2023-05-03T21:40:01.395Z,1.90
2023-05-03T21:42:30.632Z,1.90
2023-05-03T21:44:58.977Z,1.70
2023-05-03T21:47:28.017Z,1.80
2023-05-03T21:49:55.776Z,2.00
2023-05-03T21:52:23.858Z,2.10
2023-05-03T21:54:53.126Z,1.70
2023-05-03T21:57:20.949Z,2.05
2023-05-03T21:59:49.471Z,1.90
2023-05-03T22:02:17.565Z,1.90
2023-05-03T22:04:47.246Z,1.92
2023-05-03T22:07:16.472Z,1.80
2023-05-03T22:09:48.684Z,1.80
2023-05-03T22:17:15.559Z,1.90
2023-05-03T22:19:43.566Z,1.67
2023-05-03T22:22:11.466Z,1.85
2023-05-03T22:24:39.310Z,1.80
2023-05-03T22:27:07.098Z,1.60
2023-05-03T22:29:35.080Z,1.80
2023-05-03T22:32:03.070Z,1.60
2023-05-03T22:34:30.982Z,1.88
2023-05-03T22:36:58.683Z,1.80
2023-05-03T22:39:26.785Z,2.05
2023-05-03T22:41:54.505Z,2.03
2023-05-03T22:44:22.257Z,1.77
2023-05-03T22:46:49.941Z,1.90
2023-05-03T22:49:17.863Z,1.75
2023-05-03T22:51:46.046Z,1.77
2023-05-03T22:54:13.867Z,1.92
2023-05-03T22:56:41.634Z,1.70
2023-05-03T22:59:09.419Z,1.95
2023-05-03T23:01:37.546Z,1.88
2023-05-03T23:04:05.579Z,1.70
2023-05-03T23:06:33.363Z,1.90
2023-05-03T23:09:01.196Z,1.98
2023-05-03T23:11:28.965Z,1.92
2023-05-03T23:13:57.023Z,1.90
2023-05-03T23:16:24.915Z,1.98
2023-05-03T23:18:54.232Z,2.05
2023-05-03T23:21:23.714Z,1.80
2023-05-03T23:23:51.630Z,1.90
2023-05-03T23:26:20.064Z,2.10
2023-05-03T23:28:48.663Z,2.20
2023-05-03T23:31:16.879Z,2.08
2023-05-03T23:33:45.044Z,2.33
2023-05-03T23:36:13.083Z,2.13
2023-05-03T23:38:40.834Z,2.40
2023-05-03T23:41:08.851Z,2.33
2023-05-03T23:43:36.637Z,2.28
2023-05-03T23:46:04.471Z,2.17
2023-05-03T23:48:32.780Z,2.30
2023-05-03T23:51:00.696Z,2.20
2023-05-03T23:53:28.363Z,2.13
2023-05-03T23:55:56.440Z,2.15
2023-05-03T23:58:24.172Z,2.22
